createdAt,value
2018-06-29T00:00:44.751Z,68.19
2018-06-29T00:01:44.937Z,67.90
2018-06-29T00:02:45.095Z,67.90
2018-06-29T00:03:45.277Z,68.10
2018-06-29T00:04:45.462Z,68.00
2018-06-29T00:05:45.619Z,68.29
2018-06-29T00:06:45.776Z,68.10
2018-06-29T00:07:45.959Z,68.29
2018-06-29T00:08:46.157Z,68.10
2018-06-29T00:09:46.327Z,69.15
2018-06-29T00:10:46.510Z,68.38
2018-06-29T00:11:46.669Z,68.58
2018-06-29T00:12:46.874Z,68.29
2018-06-29T00:13:47.036Z,68.29
2018-06-29T00:14:47.245Z,68.77
2018-06-29T00:15:47.458Z,68.96
2018-06-29T00:16:47.568Z,68.74
2018-06-29T00:17:47.748Z,69.12
2018-06-29T00:18:47.965Z,68.93
2018-06-29T00:19:48.109Z,69.31
2018-06-29T00:20:48.278Z,69.60
2018-06-29T00:21:48.459Z,69.70
2018-06-29T00:22:48.650Z,69.89
2018-06-29T00:23:48.820Z,69.31
2018-06-29T00:24:48.997Z,69.51
2018-06-29T00:25:49.190Z,69.70
2018-06-29T00:26:49.319Z,69.70
2018-06-29T00:27:49.499Z,69.89
2018-06-29T00:28:49.677Z,69.41
2018-06-29T00:29:49.845Z,69.70
2018-06-29T00:30:50.032Z,69.89
2018-06-29T00:31:50.218Z,70.15
2018-06-29T00:32:50.395Z,70.53
2018-06-29T00:33:50.579Z,70.09
2018-06-29T00:34:50.762Z,70.47
2018-06-29T00:35:50.926Z,70.53
2018-06-29T00:36:51.111Z,70.53
2018-06-29T00:37:51.275Z,69.85
2018-06-29T00:38:51.447Z,70.53
2018-06-29T00:39:51.619Z,70.34
2018-06-29T00:40:51.788Z,70.15
2018-06-29T00:41:51.939Z,70.15
2018-06-29T00:42:52.103Z,69.95
2018-06-29T00:43:52.289Z,70.15
2018-06-29T00:44:52.459Z,70.05
2018-06-29T00:45:52.704Z,70.34
2018-06-29T00:46:52.813Z,70.09
2018-06-29T00:47:52.982Z,69.99
2018-06-29T00:48:53.154Z,70.34
2018-06-29T00:49:53.322Z,71.01
2018-06-29T00:50:53.489Z,71.20
2018-06-29T00:51:53.679Z,72.13
2018-06-29T00:52:53.857Z,71.36
2018-06-29T00:53:54.036Z,71.78
2018-06-29T00:54:54.221Z,70.53
2018-06-29T00:55:54.413Z,70.82
2018-06-29T00:56:54.567Z,70.53
2018-06-29T00:57:54.750Z,70.53
2018-06-29T00:58:54.935Z,70.62
2018-06-29T00:59:55.113Z,70.62
2018-06-29T01:00:55.293Z,71.46
2018-06-29T01:01:55.477Z,71.08
2018-06-29T01:02:55.901Z,71.59
2018-06-29T01:03:55.856Z,71.40
2018-06-29T01:04:56.037Z,71.46
2018-06-29T01:05:56.215Z,71.40
2018-06-29T01:06:56.403Z,71.49
2018-06-29T01:07:56.582Z,71.49
2018-06-29T01:08:56.764Z,71.26
2018-06-29T01:09:56.947Z,70.98
2018-06-29T01:10:57.141Z,71.40
2018-06-29T01:11:57.315Z,71.11
2018-06-29T01:12:57.494Z,71.11
2018-06-29T01:13:57.677Z,70.43
2018-06-29T01:14:57.873Z,71.20
2018-06-29T01:15:58.053Z,70.34
2018-06-29T01:16:58.238Z,70.43
2018-06-29T01:17:58.424Z,71.01
2018-06-29T01:18:58.606Z,71.11
2018-06-29T01:19:58.785Z,71.08
2018-06-29T01:20:58.976Z,71.36
2018-06-29T01:21:59.155Z,71.46
2018-06-29T01:22:59.332Z,71.59
2018-06-29T01:23:59.513Z,71.49
2018-06-29T01:24:59.690Z,71.46
2018-06-29T01:25:59.860Z,71.49
2018-06-29T01:27:00.064Z,71.40
2018-06-29T01:28:00.259Z,71.49
2018-06-29T01:29:00.427Z,71.69
2018-06-29T01:30:00.612Z,71.55
2018-06-29T01:31:00.793Z,72.32
2018-06-29T01:32:00.975Z,72.17
2018-06-29T01:33:01.164Z,72.13
2018-06-29T01:34:01.329Z,72.45
2018-06-29T01:35:01.540Z,71.69
2018-06-29T01:36:01.702Z,72.13
2018-06-29T01:37:01.892Z,72.65
2018-06-29T01:38:02.064Z,72.23
2018-06-29T01:39:02.251Z,72.03
2018-06-29T01:40:02.443Z,71.84
2018-06-29T01:41:02.630Z,72.52
2018-06-29T01:42:02.810Z,72.03
2018-06-29T01:43:02.979Z,71.94
2018-06-29T01:44:03.407Z,71.84
2018-06-29T01:45:03.339Z,72.61
2018-06-29T01:46:03.518Z,72.58
2018-06-29T01:47:03.720Z,72.77
2018-06-29T01:48:03.878Z,72.71
2018-06-29T01:49:04.050Z,73.00
2018-06-29T01:50:04.240Z,73.06
2018-06-29T01:51:04.643Z,72.42
2018-06-29T01:52:04.590Z,72.96
2018-06-29T01:53:04.772Z,72.61
2018-06-29T01:54:04.959Z,72.90
2018-06-29T01:55:05.145Z,72.58
2018-06-29T01:56:05.324Z,72.38
2018-06-29T01:57:05.507Z,72.13
2018-06-29T01:58:05.691Z,72.03
2018-06-29T01:59:05.875Z,71.94
2018-06-29T02:00:06.057Z,72.13
2018-06-29T02:01:06.258Z,71.94
2018-06-29T02:02:06.421Z,72.42
2018-06-29T02:03:06.606Z,71.94
2018-06-29T02:04:06.769Z,71.65
2018-06-29T02:05:06.958Z,71.94
2018-06-29T02:06:07.136Z,71.55
2018-06-29T02:07:07.306Z,71.75
2018-06-29T02:08:07.519Z,71.65
2018-06-29T02:09:07.659Z,72.23
2018-06-29T02:10:07.859Z,71.94
2018-06-29T02:11:08.030Z,72.32
2018-06-29T02:12:08.213Z,72.03
2018-06-29T02:13:08.394Z,72.61
2018-06-29T02:14:08.576Z,72.80
2018-06-29T02:15:08.755Z,72.77
2018-06-29T02:16:08.955Z,72.48
2018-06-29T02:17:09.130Z,73.25
2018-06-29T02:18:09.322Z,73.15
2018-06-29T02:19:09.502Z,73.06
2018-06-29T02:20:09.696Z,73.35
2018-06-29T02:21:09.876Z,73.92
2018-06-29T02:22:10.058Z,73.83
2018-06-29T02:23:10.237Z,74.88
2018-06-29T02:24:10.422Z,73.92
2018-06-29T02:25:10.607Z,74.21
2018-06-29T02:26:10.788Z,74.88
2018-06-29T02:27:10.969Z,73.73
2018-06-29T02:28:11.155Z,74.11
2018-06-29T02:29:11.380Z,73.83
2018-06-29T02:30:11.517Z,73.92
2018-06-29T02:31:11.694Z,73.83
2018-06-29T02:32:11.867Z,73.69
2018-06-29T02:33:12.048Z,73.54
2018-06-29T02:34:12.231Z,73.54
2018-06-29T02:35:12.431Z,73.54
2018-06-29T02:36:12.597Z,73.25
2018-06-29T02:37:12.779Z,72.48
2018-06-29T02:38:12.957Z,72.77
2018-06-29T02:39:13.137Z,72.38
2018-06-29T02:40:13.314Z,71.91
2018-06-29T02:41:13.506Z,71.26
2018-06-29T02:42:13.684Z,71.46
2018-06-29T02:43:13.875Z,71.26
2018-06-29T02:44:14.054Z,70.88
2018-06-29T02:45:14.247Z,71.46
2018-06-29T02:46:14.432Z,71.26
2018-06-29T02:47:14.617Z,70.50
2018-06-29T02:48:14.800Z,70.68
2018-06-29T02:49:14.983Z,70.40
2018-06-29T02:50:15.167Z,70.78
2018-06-29T02:51:15.346Z,71.65
2018-06-29T02:52:15.536Z,72.09
2018-06-29T02:53:15.709Z,72.48
2018-06-29T02:54:15.914Z,72.29
2018-06-29T02:55:16.074Z,72.96
2018-06-29T02:56:16.258Z,72.86
2018-06-29T02:57:16.444Z,72.77
2018-06-29T02:58:16.621Z,72.58
2018-06-29T02:59:16.804Z,72.77
2018-06-29T03:00:16.995Z,72.77
2018-06-29T03:01:17.172Z,72.67
2018-06-29T03:02:17.348Z,72.77
2018-06-29T03:03:17.537Z,72.23
2018-06-29T03:04:17.719Z,71.94
2018-06-29T03:05:17.905Z,72.03
2018-06-29T03:06:18.098Z,72.13
2018-06-29T03:07:18.266Z,72.13
2018-06-29T03:08:18.445Z,72.23
2018-06-29T03:09:18.635Z,72.32
2018-06-29T03:10:18.805Z,72.32
2018-06-29T03:11:19.000Z,72.03
2018-06-29T03:12:19.167Z,72.13
2018-06-29T03:13:19.349Z,72.42
2018-06-29T03:14:19.568Z,72.86
2018-06-29T03:15:19.717Z,72.48
2018-06-29T03:16:20.140Z,72.77
2018-06-29T03:17:20.081Z,72.38
2018-06-29T03:18:20.262Z,72.77
2018-06-29T03:19:20.442Z,73.35
2018-06-29T03:20:20.641Z,73.35
2018-06-29T03:21:20.807Z,73.35
2018-06-29T03:22:20.984Z,73.73
2018-06-29T03:23:21.172Z,73.83
2018-06-29T03:24:21.363Z,73.15
2018-06-29T03:25:21.532Z,73.25
2018-06-29T03:27:21.895Z,73.35
2018-06-29T03:28:22.078Z,73.44
2018-06-29T03:29:22.262Z,73.54
2018-06-29T03:30:22.445Z,73.44
2018-06-29T03:31:22.634Z,73.25
2018-06-29T03:32:22.809Z,73.83
2018-06-29T03:33:22.992Z,73.15
2018-06-29T03:34:23.176Z,73.15
2018-06-29T03:35:23.355Z,73.44
2018-06-29T03:36:23.542Z,73.15
2018-06-29T03:37:23.731Z,73.54
2018-06-29T03:38:23.908Z,73.73
2018-06-29T03:39:24.081Z,74.02
2018-06-29T03:40:24.385Z,73.54
2018-06-29T03:41:24.443Z,73.54
2018-06-29T03:42:24.637Z,73.83
2018-06-29T03:43:24.813Z,73.83
2018-06-29T03:44:25.020Z,73.83
2018-06-29T03:45:25.183Z,74.11
2018-06-29T03:46:25.357Z,74.60
2018-06-29T03:47:25.540Z,75.17
2018-06-29T03:48:25.721Z,74.88
2018-06-29T03:49:25.962Z,74.88
2018-06-29T03:50:26.092Z,74.69
2018-06-29T03:51:26.272Z,74.79
2018-06-29T03:52:26.454Z,74.98
2018-06-29T03:53:26.635Z,75.17
2018-06-29T03:54:26.819Z,75.52
2018-06-29T03:55:26.997Z,75.32
2018-06-29T03:56:27.181Z,75.37
2018-06-29T03:57:27.366Z,74.88
2018-06-29T03:58:27.544Z,75.56
2018-06-29T03:59:27.723Z,74.79
2018-06-29T04:01:28.080Z,74.88
2018-06-29T04:02:28.264Z,74.98
2018-06-29T04:03:28.452Z,74.50
2018-06-29T04:04:28.628Z,74.02
2018-06-29T04:05:28.836Z,74.02
2018-06-29T04:06:29.015Z,74.11
2018-06-29T04:07:29.193Z,73.73
2018-06-29T04:08:29.373Z,73.96
2018-06-29T04:09:29.556Z,73.63
2018-06-29T04:10:29.743Z,73.54
2018-06-29T04:11:29.933Z,73.73
2018-06-29T04:12:30.118Z,73.73
2018-06-29T04:13:30.327Z,73.73
2018-06-29T04:14:30.532Z,73.92
2018-06-29T04:15:30.665Z,73.92
2018-06-29T04:16:30.847Z,72.80
2018-06-29T04:17:31.037Z,71.24
2018-06-29T04:18:31.211Z,68.52
2018-06-29T04:19:31.395Z,66.33
2018-06-29T04:20:31.598Z,64.63
2018-06-29T04:21:31.746Z,64.34
2018-06-29T04:22:31.929Z,64.05
2018-06-29T04:23:32.117Z,63.31
2018-06-29T04:24:32.298Z,62.37
2018-06-29T04:25:32.478Z,60.96
2018-06-29T04:26:32.690Z,59.53
2018-06-29T04:27:32.841Z,59.08
2018-06-29T04:28:33.029Z,58.24
2018-06-29T04:29:33.212Z,57.37
2018-06-29T04:30:33.401Z,56.72
2018-06-29T04:31:33.592Z,55.40
2018-06-29T04:32:33.773Z,54.64
2018-06-29T04:33:33.953Z,53.49
2018-06-29T04:34:34.145Z,53.51
2018-06-29T04:35:34.326Z,51.67
2018-06-29T04:36:34.521Z,52.15
2018-06-29T04:37:34.710Z,52.12
2018-06-29T04:38:34.892Z,52.51
2018-06-29T04:39:35.076Z,53.61
2018-06-29T04:40:35.275Z,53.09
2018-06-29T04:41:35.457Z,53.39
2018-06-29T04:42:35.638Z,54.35
2018-06-29T04:43:35.848Z,53.39
2018-06-29T04:44:36.018Z,53.02
2018-06-29T04:45:36.446Z,52.76
2018-06-29T04:46:36.388Z,52.37
2018-06-29T04:47:36.576Z,51.57
2018-06-29T04:48:36.768Z,52.25
2018-06-29T04:49:36.957Z,51.76
2018-06-29T04:50:37.159Z,52.18
2018-06-29T04:51:37.324Z,51.23
2018-06-29T04:52:37.509Z,50.36
2018-06-29T04:53:37.693Z,49.80
2018-06-29T04:54:37.884Z,49.44
2018-06-29T04:55:38.313Z,48.97
2018-06-29T04:56:38.260Z,48.39
2018-06-29T04:57:38.449Z,47.44
2018-06-29T04:58:38.644Z,46.78
2018-06-29T04:59:38.833Z,46.30
2018-06-29T05:00:39.016Z,46.50
2018-06-29T05:01:39.210Z,45.45
2018-06-29T05:02:39.400Z,45.64
2018-06-29T05:03:39.585Z,45.62
2018-06-29T05:04:39.774Z,45.64
2018-06-29T05:05:39.976Z,45.74
2018-06-29T05:06:40.147Z,44.96
2018-06-29T05:07:40.354Z,45.14
2018-06-29T05:08:40.545Z,45.54
2018-06-29T05:09:40.721Z,46.18
2018-06-29T05:10:40.910Z,46.67
2018-06-29T05:11:41.102Z,46.88
2018-06-29T05:12:41.293Z,48.18
2018-06-29T05:13:41.487Z,48.20
2018-06-29T05:14:41.680Z,49.68
2018-06-29T05:15:41.859Z,48.37
2018-06-29T05:16:42.302Z,48.27
2018-06-29T05:17:42.234Z,47.25
2018-06-29T05:18:42.432Z,46.32
2018-06-29T05:19:42.580Z,45.54
2018-06-29T05:20:42.783Z,45.74
2018-06-29T05:21:42.938Z,44.32
2018-06-29T05:22:43.110Z,44.59
2018-06-29T05:23:43.317Z,43.74
2018-06-29T05:24:43.489Z,43.37
2018-06-29T05:25:43.688Z,43.08
2018-06-29T05:26:43.864Z,42.30
2018-06-29T05:27:44.043Z,43.08
2018-06-29T05:28:44.252Z,43.08
2018-06-29T05:29:44.458Z,42.49
2018-06-29T05:30:44.628Z,43.64
2018-06-29T05:31:44.826Z,43.93
2018-06-29T05:32:45.038Z,43.37
2018-06-29T05:33:45.234Z,43.43
2018-06-29T05:34:45.431Z,44.76
2018-06-29T05:35:45.650Z,44.59
2018-06-29T05:36:45.822Z,44.01
2018-06-29T05:37:46.240Z,43.81
2018-06-29T05:38:46.205Z,44.10
2018-06-29T05:39:46.407Z,44.13
2018-06-29T05:40:46.619Z,45.06
2018-06-29T05:41:46.851Z,45.54
2018-06-29T05:42:47.088Z,46.18
2018-06-29T05:43:47.188Z,46.20
2018-06-29T05:44:47.385Z,45.74
2018-06-29T05:45:47.576Z,45.18
2018-06-29T05:46:47.789Z,44.59
2018-06-29T05:47:47.958Z,43.95
2018-06-29T05:48:48.151Z,43.76
2018-06-29T05:49:48.342Z,44.40
2018-06-29T05:50:48.531Z,44.15
2018-06-29T05:51:48.729Z,43.39
2018-06-29T05:52:48.937Z,43.29
2018-06-29T05:53:49.130Z,42.54
2018-06-29T05:54:49.310Z,43.76
2018-06-29T05:55:49.504Z,45.42
2018-06-29T05:56:49.705Z,46.71
2018-06-29T05:57:49.890Z,46.62
2018-06-29T05:58:50.085Z,48.97
2018-06-29T05:59:50.279Z,46.91
2018-06-29T06:00:50.475Z,45.54
2018-06-29T06:01:50.663Z,45.20
2018-06-29T06:02:50.870Z,45.67
2018-06-29T06:03:51.055Z,48.58
2018-06-29T06:04:51.254Z,48.88
2018-06-29T06:05:51.448Z,47.17
2018-06-29T06:06:51.642Z,45.57
2018-06-29T06:07:51.836Z,45.86
2018-06-29T06:08:52.034Z,45.00
2018-06-29T06:09:52.208Z,44.42
2018-06-29T06:10:52.426Z,44.15
2018-06-29T06:11:52.576Z,43.59
2018-06-29T06:12:52.773Z,42.71
2018-06-29T06:13:52.976Z,42.41
2018-06-29T06:14:53.168Z,41.46
2018-06-29T06:15:53.382Z,41.73
2018-06-29T06:16:53.549Z,41.58
2018-06-29T06:17:53.745Z,41.07
2018-06-29T06:18:53.946Z,40.41
2018-06-29T06:19:54.137Z,40.60
2018-06-29T06:20:54.370Z,40.60
2018-06-29T06:21:54.594Z,41.22
2018-06-29T06:22:54.728Z,41.25
2018-06-29T06:23:54.912Z,41.71
2018-06-29T06:24:55.106Z,41.61
2018-06-29T06:25:55.302Z,41.25
2018-06-29T06:26:55.487Z,40.58
2018-06-29T06:27:55.710Z,40.39
2018-06-29T06:28:55.875Z,40.11
2018-06-29T06:29:56.089Z,39.43
2018-06-29T06:30:56.284Z,40.11
2018-06-29T06:31:56.488Z,38.84
2018-06-29T06:32:56.651Z,38.96
2018-06-29T06:33:56.873Z,38.48
2018-06-29T06:34:57.043Z,38.10
2018-06-29T06:35:57.235Z,38.38
2018-06-29T06:36:57.407Z,38.01
2018-06-29T06:37:57.601Z,37.81
2018-06-29T06:38:57.792Z,37.14
2018-06-29T06:39:57.993Z,36.94
2018-06-29T06:40:58.184Z,37.48
2018-06-29T06:41:58.378Z,38.04
2018-06-29T06:42:58.576Z,37.85
2018-06-29T06:43:58.768Z,37.57
2018-06-29T06:44:58.987Z,37.48
2018-06-29T06:45:59.154Z,37.96
2018-06-29T06:46:59.377Z,37.30
2018-06-29T06:47:59.547Z,36.93
2018-06-29T06:48:59.981Z,36.36
2018-06-29T06:49:59.927Z,35.87
2018-06-29T06:51:00.137Z,35.87
2018-06-29T06:52:00.315Z,36.05
2018-06-29T06:53:00.513Z,36.43
2018-06-29T06:54:00.705Z,36.82
2018-06-29T06:55:00.894Z,36.63
2018-06-29T06:56:02.753Z,36.16
2018-06-29T06:57:01.666Z,36.18
2018-06-29T06:58:01.544Z,35.50
2018-06-29T06:59:01.727Z,35.22
2018-06-29T07:00:01.921Z,36.16
2018-06-29T07:01:02.108Z,35.75
2018-06-29T07:02:02.293Z,35.95
2018-06-29T07:03:02.481Z,35.87
2018-06-29T07:04:02.676Z,35.13
2018-06-29T07:05:02.870Z,35.01
2018-06-29T07:06:03.075Z,35.01
2018-06-29T07:07:03.258Z,34.62
2018-06-29T07:08:03.476Z,34.70
2018-06-29T07:09:03.631Z,34.13
2018-06-29T07:10:03.825Z,33.97
2018-06-29T07:11:04.007Z,35.06
2018-06-29T07:12:04.195Z,39.06
2018-06-29T07:13:04.380Z,39.18
2018-06-29T07:14:04.563Z,38.32
2018-06-29T07:15:04.750Z,36.78
2018-06-29T07:16:04.952Z,36.33
2018-06-29T07:17:05.139Z,36.05
2018-06-29T07:18:05.346Z,35.09
2018-06-29T07:19:05.529Z,34.52
2018-06-29T07:20:05.727Z,33.94
2018-06-29T07:21:05.956Z,35.90
2018-06-29T07:22:06.111Z,38.69
2018-06-29T07:23:06.302Z,37.46
2018-06-29T07:24:06.491Z,36.90
2018-06-29T07:25:06.687Z,36.70
2018-06-29T07:26:06.895Z,36.43
2018-06-29T07:27:07.057Z,36.23
2018-06-29T07:28:07.256Z,36.31
2018-06-29T07:29:07.433Z,38.48
2018-06-29T07:30:07.695Z,38.75
2018-06-29T07:31:07.833Z,37.71
2018-06-29T07:32:08.041Z,36.84
2018-06-29T07:33:08.230Z,36.25
2018-06-29T07:34:08.420Z,35.86
2018-06-29T07:35:08.629Z,35.78
2018-06-29T07:36:08.829Z,35.80
2018-06-29T07:37:08.997Z,35.80
2018-06-29T07:38:09.191Z,35.31
2018-06-29T07:39:09.397Z,35.43
2018-06-29T07:40:09.581Z,34.91
2018-06-29T07:41:09.763Z,35.71
2018-06-29T07:42:09.965Z,36.02
2018-06-29T07:43:10.128Z,35.75
2018-06-29T07:44:10.318Z,34.99
2018-06-29T07:45:10.518Z,33.85
2018-06-29T07:46:10.693Z,33.18
2018-06-29T07:47:10.882Z,33.09
2018-06-29T07:48:11.113Z,32.40
2018-06-29T07:49:11.310Z,31.74
2018-06-29T07:50:11.552Z,31.07
2018-06-29T07:51:11.629Z,29.30
2018-06-29T07:52:11.806Z,30.15
2018-06-29T07:53:11.967Z,30.44
2018-06-29T07:54:12.157Z,30.35
2018-06-29T07:55:12.374Z,30.24
2018-06-29T07:56:12.663Z,29.77
2018-06-29T07:57:12.715Z,30.62
2018-06-29T07:58:12.929Z,30.63
2018-06-29T07:59:13.072Z,30.15
2018-06-29T08:00:13.310Z,30.15
2018-06-29T08:01:13.496Z,31.56
2018-06-29T08:02:13.674Z,30.81
2018-06-29T08:03:14.108Z,30.34
2018-06-29T08:04:14.025Z,29.95
2018-06-29T08:05:14.219Z,33.54
2018-06-29T08:06:14.402Z,34.79
2018-06-29T08:07:14.557Z,34.45
2018-06-29T08:08:14.752Z,33.33
2018-06-29T08:09:14.927Z,33.59
2018-06-29T08:10:15.119Z,34.92
2018-06-29T08:11:15.285Z,35.29
2018-06-29T08:12:15.485Z,34.86
2018-06-29T08:14:15.870Z,31.99
2018-06-29T08:15:16.009Z,32.45
2018-06-29T08:16:16.215Z,32.67
2018-06-29T08:17:16.386Z,32.19
2018-06-29T08:18:16.578Z,31.95
2018-06-29T08:19:16.754Z,33.46
2018-06-29T08:20:16.928Z,33.96
2018-06-29T08:21:17.111Z,33.75
2018-06-29T08:22:17.310Z,33.20
2018-06-29T08:23:17.509Z,32.35
2018-06-29T08:24:17.696Z,31.69
2018-06-29T08:25:17.852Z,32.16
2018-06-29T08:26:18.036Z,32.06
2018-06-29T08:27:18.490Z,32.23
2018-06-29T08:28:18.403Z,33.04
2018-06-29T08:29:18.567Z,32.37
2018-06-29T08:30:18.760Z,31.51
2018-06-29T08:31:18.934Z,31.51
2018-06-29T08:32:19.134Z,31.04
2018-06-29T08:33:19.280Z,30.29
2018-06-29T08:34:19.462Z,30.77
2018-06-29T08:35:19.641Z,30.81
2018-06-29T08:36:19.827Z,33.22
2018-06-29T08:37:20.033Z,32.55
2018-06-29T08:38:20.176Z,32.57
2018-06-29T08:39:20.354Z,31.99
2018-06-29T08:40:20.549Z,31.31
2018-06-29T08:41:20.748Z,32.08
2018-06-29T08:42:21.075Z,31.90
2018-06-29T08:43:21.178Z,30.94
2018-06-29T08:45:21.517Z,30.84
2018-06-29T08:46:21.722Z,30.66
2018-06-29T08:47:21.911Z,30.57
2018-06-29T08:48:22.080Z,30.84
2018-06-29T08:49:22.283Z,30.99
2018-06-29T08:50:22.468Z,31.88
2018-06-29T08:51:22.663Z,31.98
2018-06-29T08:52:22.828Z,31.41
2018-06-29T08:53:23.007Z,30.65
2018-06-29T08:54:23.188Z,31.02
2018-06-29T08:55:23.374Z,31.51
2018-06-29T08:56:23.559Z,31.02
2018-06-29T08:57:23.750Z,30.94
2018-06-29T08:58:23.914Z,30.84
2018-06-29T08:59:24.096Z,30.58
2018-06-29T09:00:24.319Z,30.37
2018-06-29T09:01:24.516Z,30.57
2018-06-29T09:02:24.694Z,30.57
2018-06-29T09:03:24.888Z,30.94
2018-06-29T09:04:25.074Z,30.16
2018-06-29T09:05:25.235Z,30.32
2018-06-29T09:06:25.430Z,30.54
2018-06-29T09:07:25.622Z,30.34
2018-06-29T09:08:25.789Z,30.16
2018-06-29T09:09:25.955Z,29.17
2018-06-29T09:10:26.179Z,29.57
2018-06-29T09:11:26.343Z,29.83
2018-06-29T09:12:26.573Z,30.81
2018-06-29T09:13:26.746Z,30.58
2018-06-29T09:14:26.908Z,32.39
2018-06-29T09:15:27.165Z,34.40
2018-06-29T09:16:27.272Z,34.52
2018-06-29T09:17:27.456Z,33.65
2018-06-29T09:18:27.647Z,34.33
2018-06-29T09:19:27.826Z,32.81
2018-06-29T09:20:28.003Z,31.57
2018-06-29T09:21:28.196Z,30.62
2018-06-29T09:22:28.697Z,30.73
2018-06-29T09:23:28.531Z,30.34
2018-06-29T09:24:28.865Z,30.60
2018-06-29T09:25:28.937Z,30.31
2018-06-29T09:26:29.146Z,30.22
2018-06-29T09:27:29.367Z,29.93
2018-06-29T09:28:29.526Z,30.42
2018-06-29T09:29:30.016Z,30.81
2018-06-29T09:30:29.892Z,29.93
2018-06-29T09:31:30.072Z,29.95
2018-06-29T09:32:30.252Z,29.46
2018-06-29T09:33:30.449Z,29.56
2018-06-29T09:34:30.640Z,30.81
2018-06-29T09:35:30.838Z,30.71
2018-06-29T09:36:31.014Z,30.34
2018-06-29T09:37:31.199Z,30.15
2018-06-29T09:38:31.390Z,29.66
2018-06-29T09:39:31.576Z,29.66
2018-06-29T09:40:31.798Z,28.96
2018-06-29T09:41:31.950Z,30.18
2018-06-29T09:42:32.154Z,29.81
2018-06-29T09:43:32.598Z,30.29
2018-06-29T09:44:32.531Z,30.29
2018-06-29T09:45:32.719Z,30.19
2018-06-29T09:46:32.903Z,29.72
2018-06-29T09:47:33.085Z,29.53
2018-06-29T09:48:33.270Z,29.91
2018-06-29T09:49:33.460Z,30.49
2018-06-29T09:50:33.907Z,30.49
2018-06-29T09:51:33.850Z,30.58
2018-06-29T09:52:34.060Z,30.78
2018-06-29T09:53:34.251Z,30.99
2018-06-29T09:54:34.428Z,31.82
2018-06-29T09:55:34.627Z,32.18
2018-06-29T09:56:34.790Z,32.92
2018-06-29T09:57:34.979Z,33.70
2018-06-29T09:58:35.176Z,31.97
2018-06-29T09:59:35.349Z,30.74
2018-06-29T10:00:35.544Z,32.18
2018-06-29T10:01:35.735Z,33.22
2018-06-29T10:02:39.276Z,33.14
2018-06-29T10:03:36.107Z,33.12
2018-06-29T10:04:36.324Z,32.34
2018-06-29T10:05:36.475Z,32.45
2018-06-29T10:06:36.654Z,32.49
2018-06-29T10:07:36.848Z,32.10
2018-06-29T10:08:37.034Z,33.34
2018-06-29T10:09:37.202Z,31.81
2018-06-29T10:10:37.396Z,30.75
2018-06-29T10:11:37.568Z,30.67
2018-06-29T10:12:37.756Z,31.16
2018-06-29T10:13:37.927Z,31.06
2018-06-29T10:14:38.119Z,30.19
2018-06-29T10:15:38.301Z,29.61
2018-06-29T10:16:38.559Z,29.14
2018-06-29T10:17:38.654Z,29.83
2018-06-29T10:18:38.919Z,29.17
2018-06-29T10:19:39.171Z,28.29
2018-06-29T10:20:39.255Z,28.68
2018-06-29T10:21:39.434Z,28.57
2018-06-29T10:22:39.613Z,28.86
2018-06-29T10:23:39.774Z,29.71
2018-06-29T10:24:39.960Z,30.57
2018-06-29T10:25:40.139Z,31.74
2018-06-29T10:26:40.333Z,31.85
2018-06-29T10:27:40.516Z,31.77
2018-06-29T10:28:40.698Z,30.71
2018-06-29T10:29:40.887Z,31.51
2018-06-29T10:30:41.121Z,31.09
2018-06-29T10:31:41.272Z,32.42
2018-06-29T10:32:41.456Z,32.40
2018-06-29T10:33:41.656Z,33.09
2018-06-29T10:34:41.842Z,33.65
2018-06-29T10:35:42.018Z,33.48
2018-06-29T10:36:42.238Z,33.75
2018-06-29T10:37:42.390Z,33.18
2018-06-29T10:38:42.622Z,32.81
2018-06-29T10:39:42.775Z,32.32
2018-06-29T10:40:42.947Z,32.06
2018-06-29T10:41:43.391Z,31.40
2018-06-29T10:42:43.319Z,31.20
2018-06-29T10:43:43.522Z,30.63
2018-06-29T10:44:43.724Z,30.71
2018-06-29T10:46:44.039Z,30.63
2018-06-29T10:47:44.217Z,30.45
2018-06-29T10:48:44.402Z,30.47
2018-06-29T10:49:44.602Z,30.32
2018-06-29T10:50:44.792Z,31.48
2018-06-29T10:51:44.976Z,32.06
2018-06-29T10:52:45.203Z,32.05
2018-06-29T10:53:45.356Z,32.34
2018-06-29T10:54:45.541Z,32.32
2018-06-29T10:55:45.738Z,32.50
2018-06-29T10:56:45.928Z,33.73
2018-06-29T10:57:46.105Z,34.42
2018-06-29T10:58:46.389Z,33.95
2018-06-29T10:59:46.490Z,33.75
2018-06-29T11:00:46.649Z,33.65
2018-06-29T11:01:46.837Z,33.77
2018-06-29T11:02:47.017Z,34.12
2018-06-29T11:03:47.202Z,33.65
2018-06-29T11:04:47.389Z,33.09
2018-06-29T11:05:47.585Z,32.31
2018-06-29T11:06:48.121Z,32.78
2018-06-29T11:07:47.944Z,33.09
2018-06-29T11:08:48.133Z,32.23
2018-06-29T11:09:48.296Z,32.32
2018-06-29T11:10:48.507Z,32.53
2018-06-29T11:11:48.659Z,32.26
2018-06-29T11:12:48.825Z,31.88
2018-06-29T11:13:49.055Z,32.32
2018-06-29T11:14:49.237Z,32.02
2018-06-29T11:15:49.430Z,32.29
2018-06-29T11:16:49.628Z,33.26
2018-06-29T11:17:49.801Z,33.65
2018-06-29T11:18:49.988Z,33.67
2018-06-29T11:19:50.154Z,33.88
2018-06-29T11:20:50.340Z,33.85
2018-06-29T11:21:50.527Z,32.79
2018-06-29T11:22:50.702Z,32.32
2018-06-29T11:23:50.872Z,32.68
2018-06-29T11:24:51.058Z,33.58
2018-06-29T11:25:51.253Z,32.62
2018-06-29T11:26:51.441Z,31.64
2018-06-29T11:27:51.616Z,30.68
2018-06-29T11:28:51.802Z,30.70
2018-06-29T11:29:51.996Z,30.98
2018-06-29T11:30:52.503Z,32.23
2018-06-29T11:31:52.412Z,33.28
2018-06-29T11:32:52.593Z,34.12
2018-06-29T11:33:52.804Z,34.90
2018-06-29T11:34:52.953Z,34.72
2018-06-29T11:35:53.125Z,33.58
2018-06-29T11:36:53.356Z,33.48
2018-06-29T11:37:53.466Z,33.67
2018-06-29T11:38:53.658Z,33.69
2018-06-29T11:39:53.853Z,33.61
2018-06-29T11:40:54.050Z,33.04
2018-06-29T11:41:54.237Z,31.95
2018-06-29T11:42:54.411Z,32.53
2018-06-29T11:43:54.583Z,32.55
2018-06-29T11:44:54.748Z,31.57
2018-06-29T11:45:54.930Z,30.91
2018-06-29T11:46:55.118Z,31.59
2018-06-29T11:47:55.448Z,30.91
2018-06-29T11:48:55.534Z,30.81
2018-06-29T11:49:55.695Z,31.40
2018-06-29T11:50:55.889Z,31.46
2018-06-29T11:51:56.071Z,32.34
2018-06-29T11:52:56.263Z,32.62
2018-06-29T11:53:56.449Z,32.53
2018-06-29T11:54:56.654Z,32.42
2018-06-29T11:55:56.817Z,32.34
2018-06-29T11:56:57.008Z,32.34
2018-06-29T11:57:57.194Z,32.53
2018-06-29T11:58:57.382Z,32.55
2018-06-29T11:59:57.574Z,32.16
2018-06-29T12:00:57.759Z,32.35
2018-06-29T12:01:57.944Z,32.55
2018-06-29T12:02:58.132Z,33.28
2018-06-29T12:03:58.322Z,33.34
2018-06-29T12:04:58.519Z,33.48
2018-06-29T12:05:58.695Z,33.29
2018-06-29T12:06:58.892Z,32.42
2018-06-29T12:07:59.076Z,32.15
2018-06-29T12:08:59.262Z,32.42
2018-06-29T12:09:59.451Z,32.70
2018-06-29T12:10:59.641Z,33.39
2018-06-29T12:11:59.827Z,32.91
2018-06-29T12:13:00.001Z,32.34
2018-06-29T12:14:00.192Z,31.95
2018-06-29T12:15:00.435Z,32.34
2018-06-29T12:16:00.552Z,32.55
2018-06-29T12:17:00.745Z,32.96
2018-06-29T12:18:00.933Z,32.37
2018-06-29T12:19:01.124Z,31.79
2018-06-29T12:20:01.321Z,30.83
2018-06-29T12:21:01.493Z,31.22
2018-06-29T12:22:01.689Z,30.91
2018-06-29T12:23:01.869Z,32.06
2018-06-29T12:24:02.055Z,33.69
2018-06-29T12:25:02.247Z,33.41
2018-06-29T12:26:02.433Z,33.12
2018-06-29T12:27:02.625Z,32.92
2018-06-29T12:28:02.909Z,33.70
2018-06-29T12:29:03.007Z,33.51
2018-06-29T12:30:03.210Z,33.69
2018-06-29T12:31:03.384Z,33.31
2018-06-29T12:32:03.572Z,33.33
2018-06-29T12:33:03.762Z,32.65
2018-06-29T12:34:03.931Z,32.45
2018-06-29T12:35:04.125Z,32.47
2018-06-29T12:36:04.298Z,32.65
2018-06-29T12:37:04.488Z,32.73
2018-06-29T12:38:04.764Z,33.49
2018-06-29T12:39:04.875Z,33.70
2018-06-29T12:40:05.057Z,33.92
2018-06-29T12:41:05.245Z,32.24
2018-06-29T12:42:05.472Z,33.29
2018-06-29T12:43:05.625Z,33.20
2018-06-29T12:44:05.804Z,33.11
2018-06-29T12:45:06.008Z,33.51
2018-06-29T12:46:06.205Z,33.49
2018-06-29T12:47:06.360Z,33.51
2018-06-29T12:48:06.546Z,33.23
2018-06-29T12:49:06.736Z,33.34
2018-06-29T12:50:06.926Z,32.96
2018-06-29T12:51:07.111Z,32.58
2018-06-29T12:52:07.301Z,32.35
2018-06-29T12:53:07.492Z,33.15
2018-06-29T12:54:07.682Z,32.39
2018-06-29T12:55:07.857Z,32.21
2018-06-29T12:56:08.045Z,31.99
2018-06-29T12:57:08.235Z,32.29
2018-06-29T12:58:08.430Z,32.09
2018-06-29T12:59:08.634Z,31.92
2018-06-29T13:00:08.806Z,32.11